Time;durP1;ratioP1;P1;durP2;ratioP2;P2;SDS_P1;SDS_P2;PMS_P1;PMS_P2;Temp;Humidity;BMP_temperature;BMP_pressure;BME280_temperature;BME280_humidity;BME280_pressure;Samples;Min_cycle;Max_cycle;Signal;HPM_P1;HPM_P2
2023/04/26 00:02:19;;;;;;;1.15;0.70;;;18.00;61.10;;;;;;5044765;28;45211;-76
2023/04/26 00:04:46;;;;;;;1.98;0.80;;;18.00;61.00;;;;;;5044974;28;45457;-76
2023/04/26 00:07:14;;;;;;;1.10;0.75;;;18.00;61.10;;;;;;5044359;28;45293;-76
2023/04/26 00:09:43;;;;;;;0.98;0.65;;;18.00;61.30;;;;;;5044679;28;45309;-76
2023/04/26 00:12:10;;;;;;;1.40;0.60;;;18.00;61.60;;;;;;5044811;28;45186;-76
2023/04/26 00:14:38;;;;;;;0.98;0.50;;;18.00;61.80;;;;;;5044872;28;45216;-76
2023/04/26 00:17:05;;;;;;;1.52;0.80;;;18.00;61.90;;;;;;5044803;28;48689;-76
2023/04/26 00:19:31;;;;;;;2.95;1.00;;;18.00;61.80;;;;;;5044866;28;45346;-77
2023/04/26 00:21:58;;;;;;;1.65;0.70;;;18.00;61.90;;;;;;5045145;28;45165;-77
2023/04/26 00:24:26;;;;;;;2.08;0.70;;;18.00;62.10;;;;;;5045128;28;45300;-77
2023/04/26 00:26:55;;;;;;;1.23;0.70;;;18.00;61.90;;;;;;5048287;28;46985;-77
2023/04/26 00:29:22;;;;;;;0.50;0.50;;;18.00;61.70;;;;;;5045140;28;45283;-77
2023/04/26 00:31:49;;;;;;;1.02;0.70;;;18.00;61.40;;;;;;5044850;28;45152;-77
2023/04/26 00:34:15;;;;;;;1.58;0.80;;;18.00;61.20;;;;;;5045503;28;45108;-76
2023/04/26 00:36:42;;;;;;;3.50;0.88;;;18.00;61.10;;;;;;5044879;28;45315;-77
2023/04/26 00:39:09;;;;;;;1.60;0.80;;;18.00;61.00;;;;;;5044709;28;45246;-77
2023/04/26 00:41:36;;;;;;;1.65;0.80;;;18.00;60.90;;;;;;5044997;28;45222;-76
2023/04/26 00:44:05;;;;;;;2.90;0.90;;;18.00;60.60;;;;;;5045060;28;45441;-77
2023/04/26 00:46:32;;;;;;;2.40;0.88;;;18.00;60.60;;;;;;5044843;28;47464;-77
2023/04/26 00:48:59;;;;;;;2.17;0.93;;;18.00;60.60;;;;;;5043884;28;45215;-77
2023/04/26 00:51:27;;;;;;;1.00;0.70;;;18.00;60.40;;;;;;5044280;28;45353;-77
2023/04/26 00:53:54;;;;;;;3.08;0.70;;;18.00;60.30;;;;;;5044825;28;45530;-77
2023/04/26 00:56:23;;;;;;;1.75;0.80;;;18.00;60.30;;;;;;5044616;28;46854;-78
2023/04/26 00:58:49;;;;;;;1.88;0.90;;;18.00;60.90;;;;;;5044723;28;45131;-77
2023/04/26 01:01:18;;;;;;;2.80;0.85;;;18.00;60.70;;;;;;5044822;28;45161;-77
2023/04/26 01:03:45;;;;;;;2.35;0.80;;;18.00;60.90;;;;;;5045282;28;45217;-77
2023/04/26 01:06:12;;;;;;;3.10;0.80;;;18.00;61.10;;;;;;5044340;28;47540;-77
2023/04/26 01:08:40;;;;;;;1.90;0.70;;;18.00;61.30;;;;;;5044884;28;45117;-78
2023/04/26 01:11:07;;;;;;;0.93;0.80;;;18.00;61.40;;;;;;5044642;28;45222;-77
2023/04/26 01:13:36;;;;;;;2.90;1.00;;;18.00;61.20;;;;;;5044406;28;45489;-77
2023/04/26 01:16:03;;;;;;;1.70;0.93;;;18.00;61.40;;;;;;5044401;28;47160;-78
2023/04/26 01:18:31;;;;;;;2.20;1.05;;;18.00;61.30;;;;;;5046821;28;45283;-77
2023/04/26 01:20:58;;;;;;;2.17;0.73;;;18.00;60.70;;;;;;5045567;28;45156;-78
2023/04/26 01:23:26;;;;;;;1.17;0.60;;;18.00;60.70;;;;;;5044866;28;45201;-77
2023/04/26 01:25:55;;;;;;;1.38;0.90;;;17.90;60.30;;;;;;5044087;28;47444;-77
2023/04/26 01:28:22;;;;;;;2.90;0.93;;;17.90;59.30;;;;;;5044148;28;45387;-77
2023/04/26 01:30:48;;;;;;;2.65;1.10;;;17.90;58.50;;;;;;5044342;28;45149;-77
2023/04/26 01:33:15;;;;;;;2.90;1.00;;;17.90;57.80;;;;;;5044473;28;45204;-78
2023/04/26 01:35:42;;;;;;;2.30;0.90;;;17.80;57.40;;;;;;5043951;28;47680;-77
2023/04/26 01:38:09;;;;;;;2.22;1.00;;;17.80;56.90;;;;;;5044229;28;45303;-77
2023/04/26 01:40:38;;;;;;;3.30;1.10;;;17.80;56.50;;;;;;5044441;28;45401;-77
2023/04/26 01:43:05;;;;;;;2.30;0.90;;;17.80;56.20;;;;;;5044285;28;45197;-76
2023/04/26 01:45:32;;;;;;;1.80;0.88;;;17.80;56.00;;;;;;5043832;28;47747;-77
2023/04/26 01:47:59;;;;;;;1.80;1.00;;;17.80;56.30;;;;;;5044146;28;45294;-77
2023/04/26 01:50:25;;;;;;;3.13;1.10;;;17.80;56.90;;;;;;5043723;28;45223;-77
2023/04/26 01:52:52;;;;;;;2.00;1.08;;;17.80;57.30;;;;;;5043870;28;45395;-76
2023/04/26 01:55:19;;;;;;;2.47;1.10;;;17.90;57.80;;;;;;5043955;28;45320;-76
2023/04/26 01:57:47;;;;;;;1.25;0.80;;;17.90;57.90;;;;;;5043719;28;45610;-76
2023/04/26 02:00:14;;;;;;;2.75;1.00;;;17.90;58.30;;;;;;5042553;28;45206;-76
2023/04/26 02:02:41;;;;;;;2.47;1.08;;;17.90;58.60;;;;;;5043892;28;45579;-76
2023/04/26 02:05:10;;;;;;;1.98;0.90;;;17.90;58.60;;;;;;5043928;28;47467;-76
2023/04/26 02:07:37;;;;;;;3.10;1.00;;;17.90;58.80;;;;;;5043904;28;45127;-76
2023/04/26 02:10:05;;;;;;;2.88;0.90;;;17.90;58.80;;;;;;5044257;28;45149;-76
2023/04/26 02:12:34;;;;;;;1.88;0.90;;;17.90;58.60;;;;;;5048146;27;45639;-76
2023/04/26 02:15:06;;;;;;;3.88;1.00;;;17.90;58.50;;;;;;5043750;28;45491;-76
2023/04/26 02:17:36;;;;;;;2.05;0.95;;;17.90;58.30;;;;;;5043313;28;45326;-76
2023/04/26 02:20:06;;;;;;;1.20;0.75;;;17.90;58.30;;;;;;5043823;28;45307;-77
2023/04/26 02:22:33;;;;;;;2.58;1.30;;;17.90;58.10;;;;;;5043474;28;45188;-76
2023/04/26 02:25:02;;;;;;;3.35;1.10;;;17.90;58.10;;;;;;5043500;28;47019;-77
2023/04/26 02:27:32;;;;;;;1.55;0.90;;;17.90;58.00;;;;;;5043544;28;45081;-76
2023/04/26 02:30:02;;;;;;;2.97;1.23;;;17.90;58.10;;;;;;5043875;28;45207;-77
2023/04/26 02:32:33;;;;;;;2.40;1.00;;;17.90;58.00;;;;;;5043468;27;45128;-76
2023/04/26 02:35:04;;;;;;;2.42;1.00;;;17.90;58.10;;;;;;5043120;28;46634;-77
2023/04/26 02:37:33;;;;;;;1.98;1.00;;;17.90;58.20;;;;;;5043176;28;45144;-76
2023/04/26 02:40:04;;;;;;;2.20;0.98;;;17.90;58.60;;;;;;5043509;27;45207;-76
2023/04/26 02:42:33;;;;;;;2.42;1.00;;;17.90;59.00;;;;;;5043671;28;45178;-77
2023/04/26 02:45:03;;;;;;;2.17;1.05;;;17.90;58.90;;;;;;5042951;28;46336;-77
2023/04/26 02:47:35;;;;;;;1.85;0.90;;;17.90;58.90;;;;;;5043259;28;45359;-77
2023/04/26 02:50:03;;;;;;;2.00;1.10;;;18.00;59.10;;;;;;5043037;28;45463;-77
2023/04/26 02:52:32;;;;;;;1.58;1.02;;;18.00;59.20;;;;;;5043458;28;45057;-77
2023/04/26 02:55:01;;;;;;;2.25;1.20;;;18.00;59.10;;;;;;5042845;28;45470;-77
2023/04/26 02:57:28;;;;;;;2.47;0.93;;;18.00;59.30;;;;;;5043495;28;45139;-77
2023/04/26 02:59:56;;;;;;;3.50;1.00;;;17.90;59.10;;;;;;5043052;28;45285;-77
2023/04/26 03:02:24;;;;;;;2.28;1.30;;;17.90;58.90;;;;;;5043459;28;45163;-76
2023/04/26 03:04:55;;;;;;;3.78;1.00;;;18.00;58.80;;;;;;5048148;28;45585;-76
2023/04/26 03:07:25;;;;;;;2.33;0.98;;;17.90;58.50;;;;;;5042943;28;45128;-77
2023/04/26 03:09:54;;;;;;;2.90;0.90;;;17.90;58.30;;;;;;5042818;28;45157;-77
2023/04/26 03:12:23;;;;;;;4.10;1.45;;;17.90;57.90;;;;;;5042208;28;45122;-77
2023/04/26 03:14:53;;;;;;;1.45;0.98;;;17.90;57.80;;;;;;5043049;28;45360;-77
2023/04/26 03:17:22;;;;;;;2.55;1.23;;;17.90;58.10;;;;;;5042610;28;45089;-77
2023/04/26 03:19:51;;;;;;;1.90;1.20;;;17.90;58.30;;;;;;5042607;28;45291;-77
2023/04/26 03:22:23;;;;;;;1.92;1.00;;;17.90;58.20;;;;;;5042695;28;45571;-77
2023/04/26 03:24:52;;;;;;;2.05;1.00;;;17.90;58.20;;;;;;5042364;28;45861;-77
2023/04/26 03:27:20;;;;;;;1.45;0.93;;;17.90;57.90;;;;;;5042730;28;45296;-77
2023/04/26 03:29:47;;;;;;;1.92;1.00;;;17.90;58.30;;;;;;5043196;28;45119;-77
2023/04/26 03:32:15;;;;;;;2.55;1.15;;;17.90;58.30;;;;;;5042399;28;45503;-78
2023/04/26 03:34:43;;;;;;;2.10;0.93;;;17.90;59.90;;;;;;5042785;28;45891;-77
2023/04/26 03:37:10;;;;;;;2.72;0.85;;;17.90;58.70;;;;;;5042547;28;45221;-77
2023/04/26 03:39:42;;;;;;;3.88;1.10;;;17.90;58.70;;;;;;5042734;28;45207;-77
2023/04/26 03:42:12;;;;;;;1.65;1.10;;;17.90;58.80;;;;;;5043030;28;45218;-77
2023/04/26 03:44:41;;;;;;;2.50;1.20;;;17.90;59.00;;;;;;5042836;28;46080;-78
2023/04/26 03:47:10;;;;;;;1.73;0.93;;;17.90;59.00;;;;;;5042041;28;45112;-77
2023/04/26 03:49:40;;;;;;;2.13;1.02;;;17.90;59.00;;;;;;5041921;28;45162;-77
2023/04/26 03:52:08;;;;;;;1.10;1.00;;;17.90;58.70;;;;;;5042771;28;45364;-77
2023/04/26 03:54:37;;;;;;;1.52;0.95;;;17.90;58.10;;;;;;5042161;28;45918;-77
2023/04/26 03:57:06;;;;;;;3.60;1.27;;;17.90;57.90;;;;;;5048188;28;45214;-78
2023/04/26 03:59:35;;;;;;;2.17;1.00;;;17.90;57.80;;;;;;5043065;28;45360;-78
2023/04/26 04:02:03;;;;;;;2.15;1.10;;;17.90;57.70;;;;;;5042478;28;45737;-78
2023/04/26 04:04:32;;;;;;;1.85;0.98;;;17.90;57.50;;;;;;5041684;28;45791;-77
2023/04/26 04:07:02;;;;;;;2.25;1.00;;;17.90;57.40;;;;;;5041821;28;45206;-77
2023/04/26 04:09:32;;;;;;;1.45;0.90;;;17.90;57.50;;;;;;5041845;28;45215;-78
2023/04/26 04:12:01;;;;;;;2.78;1.27;;;17.90;57.10;;;;;;5041895;28;45162;-77
2023/04/26 04:14:33;;;;;;;4.43;1.17;;;17.80;57.10;;;;;;5041974;28;45550;-78
2023/04/26 04:17:03;;;;;;;2.00;1.13;;;17.90;57.40;;;;;;5041979;28;45134;-77
2023/04/26 04:19:32;;;;;;;5.22;1.40;;;17.90;57.70;;;;;;5041712;28;45250;-76
2023/04/26 04:22:01;;;;;;;2.97;1.30;;;17.90;57.60;;;;;;5041700;28;45459;-76
2023/04/26 04:24:31;;;;;;;2.28;1.30;;;17.90;57.20;;;;;;5044985;28;47444;-76
2023/04/26 04:27:00;;;;;;;2.08;1.23;;;17.90;56.90;;;;;;5044740;28;45216;-76
2023/04/26 04:29:27;;;;;;;3.35;1.75;;;17.90;56.70;;;;;;5045171;28;45119;-77
2023/04/26 04:31:58;;;;;;;2.17;1.50;;;17.90;56.10;;;;;;5045105;28;45574;-77
2023/04/26 04:34:26;;;;;;;3.33;1.90;;;17.90;55.50;;;;;;5045177;28;45826;-77
2023/04/26 04:36:56;;;;;;;5.13;1.90;;;17.80;54.40;;;;;;5044702;28;45891;-77
2023/04/26 04:39:25;;;;;;;4.30;1.67;;;17.80;54.20;;;;;;5044763;28;45316;-77
2023/04/26 04:41:53;;;;;;;3.38;1.73;;;17.80;53.40;;;;;;5044805;28;45151;-76
2023/04/26 04:44:23;;;;;;;3.72;1.85;;;17.80;52.20;;;;;;5044856;28;45678;-78
2023/04/26 04:46:52;;;;;;;2.35;1.58;;;17.70;51.90;;;;;;5044507;28;45094;-77
2023/04/26 04:49:23;;;;;;;3.50;1.65;;;17.70;51.90;;;;;;5047976;28;45281;-76
2023/04/26 04:51:51;;;;;;;7.93;1.98;;;17.70;51.90;;;;;;5044596;28;45758;-75
2023/04/26 04:54:19;;;;;;;4.93;2.08;;;17.60;51.80;;;;;;5044700;28;47324;-75
2023/04/26 04:56:46;;;;;;;4.68;2.00;;;17.60;51.80;;;;;;5044545;28;45166;-76
2023/04/26 04:59:12;;;;;;;3.92;2.10;;;17.60;52.60;;;;;;5045002;28;45156;-77
2023/04/26 05:01:39;;;;;;;3.13;1.77;;;17.60;51.50;;;;;;5044876;28;45395;-76
2023/04/26 05:04:07;;;;;;;3.72;2.00;;;17.60;51.40;;;;;;5044433;28;47511;-77
2023/04/26 05:06:35;;;;;;;3.13;1.63;;;17.60;51.30;;;;;;5044349;28;45139;-76
2023/04/26 05:09:04;;;;;;;3.05;1.52;;;17.70;51.90;;;;;;5045046;28;45231;-76
2023/04/26 05:11:31;;;;;;;5.88;1.75;;;17.70;52.20;;;;;;5044405;28;45149;-77
2023/04/26 05:13:57;;;;;;;2.17;1.60;;;17.70;53.00;;;;;;5044123;28;48343;-76
2023/04/26 05:16:24;;;;;;;5.70;1.80;;;17.70;53.60;;;;;;5044516;28;45141;-77
2023/04/26 05:18:51;;;;;;;5.30;2.03;;;17.70;53.80;;;;;;5044963;28;45252;-75
2023/04/26 05:21:18;;;;;;;3.53;1.83;;;17.80;54.00;;;;;;5044349;28;45449;-76
2023/04/26 05:23:46;;;;;;;2.33;1.67;;;17.80;53.80;;;;;;5044105;28;45658;-77
2023/04/26 05:26:15;;;;;;;2.83;1.42;;;17.80;54.00;;;;;;5044569;28;45141;-76
2023/04/26 05:28:42;;;;;;;4.65;1.38;;;17.80;54.20;;;;;;5044245;28;45230;-76
2023/04/26 05:31:10;;;;;;;3.50;1.60;;;17.80;54.10;;;;;;5044820;28;45417;-77
2023/04/26 05:33:36;;;;;;;5.88;1.95;;;17.80;54.10;;;;;;5043541;28;46359;-76
2023/04/26 05:36:04;;;;;;;2.80;1.60;;;17.80;54.00;;;;;;5044314;28;45239;-77
2023/04/26 05:38:31;;;;;;;3.10;1.48;;;17.80;54.00;;;;;;5044661;28;45194;-77
2023/04/26 05:40:59;;;;;;;3.75;1.70;;;17.80;53.80;;;;;;5044782;28;45654;-75
2023/04/26 05:43:26;;;;;;;8.60;1.95;;;17.80;54.00;;;;;;5047663;28;46304;-76
2023/04/26 05:45:53;;;;;;;3.17;1.58;;;17.80;54.40;;;;;;5044494;28;45259;-74
2023/04/26 05:48:22;;;;;;;37.63;3.97;;;17.90;55.20;;;;;;5041257;28;45376;-77
2023/04/26 05:50:49;;;;;;;18.17;2.53;;;17.90;57.20;;;;;;5043955;28;45437;-77
2023/04/26 05:53:16;;;;;;;19.77;2.58;;;17.90;56.30;;;;;;5043431;28;46263;-77
2023/04/26 05:55:43;;;;;;;6.30;1.90;;;17.90;55.80;;;;;;5043864;28;45220;-77
2023/04/26 05:58:11;;;;;;;4.85;1.75;;;17.90;55.60;;;;;;5043794;28;45201;-77
2023/04/26 06:00:38;;;;;;;7.20;1.48;;;17.90;55.80;;;;;;5044112;28;45221;-76
2023/04/26 06:03:05;;;;;;;5.50;1.98;;;17.90;55.80;;;;;;5043558;28;46329;-77
2023/04/26 06:05:32;;;;;;;2.58;1.27;;;17.90;55.80;;;;;;5043730;28;45203;-77
2023/04/26 06:08:02;;;;;;;4.03;1.42;;;17.90;55.80;;;;;;5043767;28;45313;-77
2023/04/26 06:10:30;;;;;;;5.53;1.80;;;17.90;55.90;;;;;;5043940;28;45330;-77
2023/04/26 06:12:56;;;;;;;3.47;1.50;;;17.90;55.90;;;;;;5043212;28;46806;-77
2023/04/26 06:15:26;;;;;;;2.28;1.33;;;17.90;56.00;;;;;;5043586;28;45213;-77
2023/04/26 06:17:53;;;;;;;4.50;1.70;;;17.90;56.00;;;;;;5043655;28;45265;-77
2023/04/26 06:20:20;;;;;;;4.05;1.15;;;17.90;56.10;;;;;;5043042;28;45534;-77
2023/04/26 06:22:47;;;;;;;6.38;1.70;;;17.90;56.10;;;;;;5042675;28;48239;-76
2023/04/26 06:25:14;;;;;;;3.92;1.52;;;18.00;56.10;;;;;;5043292;28;45312;-77
2023/04/26 06:27:41;;;;;;;5.25;1.67;;;17.90;56.10;;;;;;5042994;28;45329;-77
2023/04/26 06:30:09;;;;;;;3.75;1.60;;;17.90;56.20;;;;;;5043385;27;45304;-77
2023/04/26 06:32:38;;;;;;;2.55;1.60;;;17.90;56.30;;;;;;5042634;28;46543;-77
2023/04/26 06:35:06;;;;;;;6.47;1.60;;;17.90;56.50;;;;;;5046686;28;45217;-76
2023/04/26 06:37:33;;;;;;;2.60;1.35;;;17.90;56.40;;;;;;5044272;28;45290;-77
2023/04/26 06:40:00;;;;;;;3.40;1.40;;;17.90;56.40;;;;;;5042931;28;45227;-77
2023/04/26 06:42:27;;;;;;;4.13;1.33;;;17.90;56.60;;;;;;5042312;28;46114;-77
2023/04/26 06:44:54;;;;;;;1.80;1.23;;;17.90;56.70;;;;;;5042818;28;45282;-78
2023/04/26 06:47:21;;;;;;;3.55;1.50;;;17.90;56.80;;;;;;5042186;28;45459;-77
2023/04/26 06:49:50;;;;;;;4.47;1.25;;;17.90;56.90;;;;;;5042967;28;45415;-77
2023/04/26 06:52:17;;;;;;;1.75;1.13;;;17.90;57.00;;;;;;5043198;28;45169;-78
2023/04/26 06:54:44;;;;;;;4.70;1.40;;;18.00;57.10;;;;;;5043215;28;45428;-78
2023/04/26 06:57:11;;;;;;;3.28;1.35;;;18.00;57.00;;;;;;5043084;28;45219;-78
2023/04/26 06:59:37;;;;;;;2.28;1.20;;;18.00;57.10;;;;;;5043140;28;45540;-78
2023/04/26 07:02:04;;;;;;;4.40;1.80;;;18.00;57.10;;;;;;5042941;28;46404;-77
2023/04/26 07:04:31;;;;;;;5.05;1.40;;;18.00;57.00;;;;;;5042719;28;45309;-77
2023/04/26 07:06:59;;;;;;;8.70;1.65;;;18.00;57.10;;;;;;5042934;28;45114;-77
2023/04/26 07:09:26;;;;;;;4.55;1.80;;;18.00;57.00;;;;;;5041779;28;45699;-78
2023/04/26 07:11:52;;;;;;;6.68;1.15;;;18.00;58.20;;;;;;5042628;28;48299;-78
2023/04/26 07:14:19;;;;;;;4.57;1.10;;;18.10;59.90;;;;;;5042610;28;45304;-78
2023/04/26 07:16:46;;;;;;;3.85;1.40;;;18.10;60.20;;;;;;5043209;28;45235;-79
2023/04/26 07:19:13;;;;;;;2.75;0.93;;;18.20;60.00;;;;;;5043148;28;45195;-78
2023/04/26 07:21:39;;;;;;;3.60;1.05;;;18.20;59.80;;;;;;5041943;28;46595;-77
2023/04/26 07:24:08;;;;;;;2.80;1.15;;;18.20;59.60;;;;;;5042377;28;45188;-77
2023/04/26 07:26:35;;;;;;;4.40;1.48;;;18.10;58.90;;;;;;5042006;28;45297;-76
2023/04/26 07:29:02;;;;;;;6.82;1.33;;;18.10;58.80;;;;;;5044904;28;45529;-76
2023/04/26 07:31:30;;;;;;;2.70;1.25;;;18.00;58.40;;;;;;5042351;28;46584;-76
2023/04/26 07:33:57;;;;;;;1.67;0.70;;;18.10;58.50;;;;;;5042044;28;45307;-76
2023/04/26 07:36:25;;;;;;;3.53;1.17;;;18.00;59.00;;;;;;5042025;28;45266;-76
2023/04/26 07:38:52;;;;;;;3.03;1.10;;;18.00;58.10;;;;;;5042051;28;45477;-76
2023/04/26 07:41:20;;;;;;;2.60;1.00;;;18.00;57.90;;;;;;5041661;28;47439;-76
2023/04/26 07:43:47;;;;;;;2.72;1.13;;;18.10;57.90;;;;;;5041819;28;45260;-76
2023/04/26 07:46:13;;;;;;;2.45;1.00;;;18.10;57.70;;;;;;5041744;28;45299;-76
2023/04/26 07:48:40;;;;;;;3.13;1.10;;;18.10;57.60;;;;;;5041790;28;45575;-76
2023/04/26 07:51:07;;;;;;;1.80;0.98;;;18.10;57.40;;;;;;5041224;28;46978;-76
2023/04/26 07:53:34;;;;;;;3.03;1.00;;;18.10;57.50;;;;;;5041145;28;45206;-76
2023/04/26 07:56:04;;;;;;;3.15;1.05;;;18.10;57.40;;;;;;5041700;28;45288;-77
2023/04/26 07:58:32;;;;;;;2.53;1.05;;;18.10;57.50;;;;;;5045003;28;45247;-76
2023/04/26 08:00:59;;;;;;;1.23;0.70;;;18.10;57.20;;;;;;5044310;28;47039;-76
2023/04/26 08:03:27;;;;;;;1.27;0.80;;;18.10;57.10;;;;;;5044773;28;45350;-76
2023/04/26 08:05:54;;;;;;;3.63;0.85;;;18.10;57.10;;;;;;5044650;28;45361;-76
2023/04/26 08:08:21;;;;;;;2.03;0.90;;;18.10;57.10;;;;;;5044943;28;45253;-76
2023/04/26 08:10:48;;;;;;;1.67;0.98;;;18.10;57.30;;;;;;5044574;28;46576;-76
2023/04/26 08:13:15;;;;;;;2.53;0.95;;;18.10;57.20;;;;;;5044095;28;45285;-76
2023/04/26 08:15:43;;;;;;;3.15;1.00;;;18.10;57.50;;;;;;5044342;28;45306;-76
2023/04/26 08:18:10;;;;;;;2.08;0.85;;;18.10;57.70;;;;;;5044267;28;45408;-76
2023/04/26 08:20:37;;;;;;;1.63;0.77;;;18.00;57.50;;;;;;5044703;28;46758;-74
2023/04/26 08:23:04;;;;;;;1.95;0.80;;;18.00;57.40;;;;;;5036652;28;45279;-76
2023/04/26 08:25:33;;;;;;;1.85;0.80;;;18.00;57.20;;;;;;5044227;28;45268;-75
2023/04/26 08:28:00;;;;;;;1.67;0.75;;;18.00;57.20;;;;;;5043958;28;45203;-75
2023/04/26 08:30:28;;;;;;;1.65;0.82;;;18.00;57.40;;;;;;5044059;28;47995;-75
2023/04/26 08:32:56;;;;;;;1.33;0.77;;;18.10;57.40;;;;;;5043960;28;45364;-75
2023/04/26 08:35:23;;;;;;;3.00;0.80;;;18.10;57.20;;;;;;5043866;28;45353;-75
2023/04/26 08:37:50;;;;;;;2.05;0.68;;;18.10;57.20;;;;;;5040068;28;45272;-75
2023/04/26 08:40:22;;;;;;;3.15;0.65;;;18.10;57.30;;;;;;5029316;28;45412;-75
2023/04/26 08:42:49;;;;;;;1.90;0.90;;;18.10;57.30;;;;;;5043743;28;46569;-75
2023/04/26 08:45:16;;;;;;;2.17;0.80;;;18.10;57.20;;;;;;5043795;28;45314;-75
2023/04/26 08:47:44;;;;;;;1.90;0.50;;;18.10;57.10;;;;;;5043725;28;45245;-75
2023/04/26 08:50:14;;;;;;;2.90;0.70;;;18.10;57.00;;;;;;5043450;28;45307;-75
2023/04/26 08:52:43;;;;;;;2.10;0.80;;;18.10;57.10;;;;;;5043568;28;45436;-75
2023/04/26 08:55:11;;;;;;;1.10;0.60;;;18.10;57.20;;;;;;5043913;28;45282;-75
2023/04/26 08:57:39;;;;;;;1.52;0.65;;;18.10;57.00;;;;;;5044619;28;45207;-75
2023/04/26 09:00:11;;;;;;;3.70;0.80;;;18.10;56.70;;;;;;5043480;28;47554;-75
2023/04/26 09:02:40;;;;;;;5.10;0.80;;;18.20;57.00;;;;;;5043392;28;46063;-76
2023/04/26 09:05:08;;;;;;;1.55;0.55;;;18.10;57.00;;;;;;5043690;28;45220;-76
2023/04/26 09:07:41;;;;;;;3.05;0.52;;;18.10;57.10;;;;;;5044013;28;45150;-76
2023/04/26 09:10:09;;;;;;;2.78;0.75;;;18.10;56.80;;;;;;5022673;28;46606;-75
2023/04/26 09:12:36;;;;;;;1.70;0.73;;;18.10;56.50;;;;;;5040216;28;45252;-75
2023/04/26 09:15:06;;;;;;;1.83;0.63;;;18.10;56.10;;;;;;5038821;28;45336;-75
2023/04/26 09:17:35;;;;;;;2.42;0.70;;;18.10;55.50;;;;;;5043476;28;45397;-75
2023/04/26 09:20:16;;;;;;;1.52;0.60;;;18.10;55.90;;;;;;5043333;28;46882;-75
2023/04/26 09:22:45;;;;;;;1.83;0.80;;;18.10;56.20;;;;;;5043646;28;45368;-75
2023/04/26 09:25:13;;;;;;;2.40;0.67;;;18.20;56.00;;;;;;5041628;28;45384;-75
2023/04/26 09:27:42;;;;;;;2.53;0.90;;;18.20;56.20;;;;;;5042978;28;45467;-75
2023/04/26 09:30:11;;;;;;;1.85;0.70;;;18.20;56.50;;;;;;5042670;28;48168;-75
2023/04/26 09:32:52;;;;;;;1.27;0.60;;;18.20;56.30;;;;;;5043431;28;46378;-76
2023/04/26 09:35:25;;;;;;;2.50;0.73;;;18.20;56.00;;;;;;5043099;28;45357;-75
2023/04/26 09:37:55;;;;;;;1.88;0.60;;;18.30;56.20;;;;;;5042289;27;45571;-75
2023/04/26 09:40:23;;;;;;;2.17;0.75;;;18.30;56.20;;;;;;5042416;28;46441;-75
2023/04/26 09:42:57;;;;;;;1.92;0.65;;;18.30;56.00;;;;;;5042406;28;45464;-75
2023/04/26 09:45:24;;;;;;;2.95;0.60;;;18.30;55.70;;;;;;5043247;28;45243;-76
2023/04/26 09:47:51;;;;;;;2.45;0.68;;;18.30;55.50;;;;;;5042659;28;45255;-75
2023/04/26 09:50:29;;;;;;;2.47;0.50;;;18.20;55.10;;;;;;5043282;28;46574;-76
2023/04/26 09:52:57;;;;;;;1.73;0.85;;;18.30;54.90;;;;;;5042716;28;45228;-75
2023/04/26 09:55:27;;;;;;;1.77;0.43;;;18.20;55.00;;;;;;5042324;28;45306;-76
2023/04/26 09:57:54;;;;;;;2.90;0.70;;;18.20;54.90;;;;;;5042376;28;45637;-75
2023/04/26 10:00:22;;;;;;;1.85;0.90;;;18.20;55.10;;;;;;5042335;28;45244;-76
2023/04/26 10:02:49;;;;;;;1.27;0.52;;;18.20;54.80;;;;;;5043303;28;45269;-76
2023/04/26 10:05:16;;;;;;;1.77;0.82;;;18.20;55.00;;;;;;5044234;28;45266;-77
2023/04/26 10:07:43;;;;;;;1.90;0.82;;;18.20;54.90;;;;;;5046671;28;45187;-75
2023/04/26 10:10:12;;;;;;;6.43;0.82;;;18.10;54.60;;;;;;5043261;28;48359;-76
2023/04/26 10:12:42;;;;;;;2.70;0.80;;;18.10;54.80;;;;;;5043226;28;45358;-76
2023/04/26 10:15:10;;;;;;;2.92;0.50;;;18.10;54.30;;;;;;5042813;28;45271;-75
2023/04/26 10:17:37;;;;;;;1.25;0.63;;;18.20;54.70;;;;;;5042688;28;45213;-75
2023/04/26 10:20:07;;;;;;;3.17;0.70;;;18.20;54.80;;;;;;5041398;28;47410;-75
2023/04/26 10:22:40;;;;;;;2.05;0.80;;;18.20;54.40;;;;;;5041997;28;45381;-75
2023/04/26 10:25:09;;;;;;;2.83;0.70;;;18.20;54.40;;;;;;5041865;28;45447;-75
2023/04/26 10:27:51;;;;;;;1.63;0.70;;;18.20;54.50;;;;;;5041724;28;45430;-75
2023/04/26 10:30:20;;;;;;;1.23;0.47;;;18.20;54.40;;;;;;5041753;28;47273;-75
2023/04/26 10:33:17;;;;;;;3.22;1.00;;;18.20;54.00;;;;;;5041281;28;45333;-75
2023/04/26 10:36:11;;;;;;;1.35;0.75;;;18.20;53.90;;;;;;5041794;28;45302;-75
2023/04/26 10:38:39;;;;;;;3.45;0.60;;;18.20;53.80;;;;;;5042017;28;45590;-75
2023/04/26 10:41:32;;;;;;;0.85;0.47;;;18.20;54.20;;;;;;5041602;28;46582;-75
2023/04/26 10:44:22;;;;;;;1.90;0.50;;;18.20;54.40;;;;;;5042108;28;45416;-75
2023/04/26 10:46:51;;;;;;;1.15;0.47;;;18.10;54.20;;;;;;5041671;28;45548;-75
2023/04/26 10:49:21;;;;;;;2.45;0.50;;;18.10;54.50;;;;;;5041758;28;45616;-76
2023/04/26 10:52:14;;;;;;;2.90;0.60;;;18.10;54.40;;;;;;5042216;28;45428;-76
2023/04/26 10:54:49;;;;;;;2.00;0.80;;;18.20;54.50;;;;;;5041798;28;46093;-76
2023/04/26 10:57:16;;;;;;;2.47;0.82;;;18.10;54.40;;;;;;5042092;28;45548;-76
2023/04/26 11:00:16;;;;;;;1.58;0.68;;;18.10;54.40;;;;;;5045196;28;45402;-76
2023/04/26 11:02:54;;;;;;;2.55;0.90;;;18.20;54.40;;;;;;5042114;28;47772;-75
2023/04/26 11:05:40;;;;;;;1.80;0.73;;;18.20;54.40;;;;;;5036884;28;45466;-75
2023/04/26 11:08:08;;;;;;;1.83;0.75;;;18.20;53.80;;;;;;5031074;28;45566;-76
2023/04/26 11:10:38;;;;;;;1.83;0.77;;;18.20;54.30;;;;;;5042113;28;45582;-75
2023/04/26 11:13:05;;;;;;;1.83;0.65;;;18.20;54.20;;;;;;5075614;27;47350;-76
2023/04/26 11:15:32;;;;;;;1.95;0.68;;;18.20;53.90;;;;;;5034771;28;45419;-76
2023/04/26 11:18:03;;;;;;;2.90;0.85;;;18.20;53.60;;;;;;5042082;28;45266;-75
2023/04/26 11:20:31;;;;;;;1.38;0.60;;;18.20;52.90;;;;;;5041967;28;45217;-76
2023/04/26 11:22:58;;;;;;;1.98;0.50;;;18.20;53.70;;;;;;5041773;28;45297;-76
2023/04/26 11:25:27;;;;;;;1.60;0.90;;;18.20;53.80;;;;;;5041888;28;45334;-76
2023/04/26 11:28:00;;;;;;;2.00;0.50;;;18.20;54.00;;;;;;5039382;28;45375;-76
2023/04/26 11:30:29;;;;;;;3.05;0.80;;;18.20;53.70;;;;;;5039878;28;45254;-75
2023/04/26 11:32:56;;;;;;;2.85;0.80;;;18.20;55.00;;;;;;5042144;28;46533;-75
2023/04/26 11:35:24;;;;;;;1.98;0.52;;;18.20;54.00;;;;;;5043660;28;45248;-75
2023/04/26 11:37:51;;;;;;;1.77;0.70;;;18.20;54.30;;;;;;5043009;28;45370;-75
2023/04/26 11:40:18;;;;;;;2.22;0.73;;;18.20;54.40;;;;;;5044167;28;45440;-75
2023/04/26 11:42:45;;;;;;;1.50;0.80;;;18.20;54.60;;;;;;5042808;28;47013;-75
2023/04/26 11:45:12;;;;;;;1.67;0.73;;;18.20;54.30;;;;;;5041615;28;45606;-75
2023/04/26 11:47:40;;;;;;;1.83;0.75;;;18.20;54.00;;;;;;5043203;28;45315;-75
2023/04/26 11:50:08;;;;;;;1.77;0.80;;;18.20;54.50;;;;;;5042629;28;45283;-75
2023/04/26 11:52:37;;;;;;;1.85;0.80;;;18.20;54.10;;;;;;5045361;28;48661;-75
2023/04/26 11:55:06;;;;;;;2.13;0.70;;;18.20;53.80;;;;;;5025969;28;45233;-75
2023/04/26 11:57:32;;;;;;;4.60;0.95;;;18.20;54.10;;;;;;5031474;28;45369;-75
2023/04/26 12:00:11;;;;;;;2.83;1.30;;;18.20;54.10;;;;;;5040907;28;45742;-69
2023/04/26 12:02:38;;;;;;;4.65;1.27;;;18.20;54.30;;;;;;5038941;28;47504;-71
2023/04/26 12:05:07;;;;;;;10.55;1.40;;;18.30;61.00;;;;;;5033262;28;45239;-73
2023/04/26 12:07:37;;;;;;;2.80;1.10;;;18.30;58.70;;;;;;5041406;28;45384;-72
2023/04/26 12:10:17;;;;;;;3.15;1.13;;;18.30;57.80;;;;;;5033993;28;45279;-73
2023/04/26 12:12:45;;;;;;;5.45;1.08;;;18.30;57.10;;;;;;5041452;28;46597;-73
2023/04/26 12:15:12;;;;;;;5.13;1.00;;;18.30;57.40;;;;;;5040377;28;45327;-73
2023/04/26 12:17:39;;;;;;;1.90;0.98;;;18.30;57.40;;;;;;5036493;28;45413;-73
2023/04/26 12:20:10;;;;;;;2.05;1.02;;;18.20;57.30;;;;;;5041515;28;45624;-73
2023/04/26 12:22:39;;;;;;;4.38;0.93;;;18.30;57.70;;;;;;5042060;28;47503;-72
2023/04/26 12:25:06;;;;;;;3.03;1.00;;;18.30;57.70;;;;;;5033364;28;45305;-73
2023/04/26 12:27:33;;;;;;;3.50;0.90;;;18.30;57.40;;;;;;5042026;28;45319;-72
2023/04/26 12:30:00;;;;;;;3.30;1.00;;;18.30;57.20;;;;;;5042228;28;45465;-73
2023/04/26 12:32:27;;;;;;;1.92;0.70;;;18.20;56.50;;;;;;5041506;28;48270;-73
2023/04/26 12:34:54;;;;;;;2.70;0.85;;;18.20;56.70;;;;;;5041141;28;45315;-73
2023/04/26 12:37:21;;;;;;;2.88;1.17;;;18.20;56.30;;;;;;5039675;28;45249;-73
2023/04/26 12:39:49;;;;;;;2.15;0.80;;;18.20;56.20;;;;;;5042250;28;45212;-73
2023/04/26 12:42:16;;;;;;;1.92;1.00;;;18.20;56.60;;;;;;5041755;28;47613;-73
2023/04/26 12:44:43;;;;;;;2.05;0.90;;;18.20;56.70;;;;;;5043389;28;45780;-73
2023/04/26 12:47:10;;;;;;;1.40;1.00;;;18.20;56.70;;;;;;5041739;28;45357;-73
2023/04/26 12:49:36;;;;;;;2.88;0.85;;;18.20;57.00;;;;;;5041745;28;45283;-73
2023/04/26 12:52:03;;;;;;;1.10;0.70;;;18.20;57.10;;;;;;5033936;28;47701;-73
2023/04/26 12:54:30;;;;;;;1.20;0.65;;;18.30;57.60;;;;;;5038346;28;46015;-73